Time;durP1;ratioP1;P1;durP2;ratioP2;P2;SDS_P1;SDS_P2;PMS_P1;PMS_P2;Temp;Humidity;BMP_temperature;BMP_pressure;BME280_temperature;BME280_humidity;BME280_pressure;Samples;Min_cycle;Max_cycle;Signal;HPM_P1;HPM_P2
2021/11/10 00:00:38;;;;;;;0.20;0.20;;;;;;;3.50;100.00;101940.41;5105311;28;20036;-78
2021/11/10 00:03:12;;;;;;;0.20;0.20;;;;;;;3.45;100.00;101938.31;5103532;28;20055;-79
2021/11/10 00:05:46;;;;;;;0.20;0.20;;;;;;;3.45;100.00;101935.63;5105422;28;20047;-78
2021/11/10 00:08:19;;;;;;;0.30;0.30;;;;;;;3.48;100.00;101934.38;5105441;27;20456;-78
2021/11/10 00:10:55;;;;;;;0.20;0.20;;;;;;;3.39;100.00;101939.94;5103796;28;20058;-78
2021/11/10 00:13:23;;;;;;;0.20;0.20;;;;;;;3.39;100.00;101939.13;5105184;28;20055;-78
2021/11/10 00:15:54;;;;;;;0.28;0.28;;;;;;;3.41;100.00;101937.06;5104261;28;20240;-77
2021/11/10 00:18:27;;;;;;;0.20;0.20;;;;;;;3.44;100.00;101949.28;5103267;28;20059;-78
2021/11/10 00:21:00;;;;;;;0.30;0.30;;;;;;;3.38;100.00;101942.84;5101960;28;20059;-79
2021/11/10 00:23:28;;;;;;;0.20;0.20;;;;;;;3.36;100.00;101945.75;5105019;28;20066;-79
2021/11/10 00:26:03;;;;;;;0.20;0.20;;;;;;;3.38;100.00;101941.00;5102765;28;20392;-79
2021/11/10 00:28:36;;;;;;;0.20;0.20;;;;;;;3.40;100.00;101938.09;5105516;28;20035;-79
2021/11/10 00:31:09;;;;;;;0.30;0.30;;;;;;;3.47;100.00;101944.34;5105619;28;20044;-79
2021/11/10 00:33:43;;;;;;;0.20;0.20;;;;;;;3.49;100.00;101942.25;5103858;28;20036;-78
2021/11/10 00:36:16;;;;;;;0.20;0.20;;;;;;;3.47;100.00;101935.44;5100808;28;20048;-78
2021/11/10 00:38:50;;;;;;;0.30;0.30;;;;;;;3.43;100.00;101940.38;5099483;28;20055;-79
2021/11/10 00:41:20;;;;;;;0.20;0.20;;;;;;;3.43;100.00;101934.19;5102595;27;20513;-79
2021/11/10 00:43:53;;;;;;;0.22;0.22;;;;;;;3.42;100.00;101927.13;5103843;28;20078;-79
2021/11/10 00:46:21;;;;;;;0.20;0.20;;;;;;;3.51;100.00;101931.31;5103370;28;20043;-78
2021/11/10 00:48:55;;;;;;;0.20;0.20;;;;;;;3.50;100.00;101919.72;5105025;28;20051;-79
2021/11/10 00:51:29;;;;;;;0.20;0.20;;;;;;;3.57;100.00;101923.25;5104404;28;20511;-78
2021/11/10 00:54:02;;;;;;;0.20;0.20;;;;;;;3.64;100.00;101920.56;5119965;27;20052;-78
2021/11/10 00:56:36;;;;;;;0.25;0.25;;;;;;;3.58;100.00;101916.84;5101688;28;20044;-78
2021/11/10 00:59:05;;;;;;;0.28;0.28;;;;;;;3.66;100.00;101926.59;5104999;28;20048;-80
2021/11/10 01:01:39;;;;;;;0.20;0.20;;;;;;;3.59;100.00;101912.31;5106141;28;20051;-78
2021/11/10 01:04:07;;;;;;;0.20;0.20;;;;;;;3.69;100.00;101926.19;5109862;28;20512;-78
2021/11/10 01:06:40;;;;;;;0.20;0.20;;;;;;;3.77;100.00;101925.19;5110269;28;20066;-79
2021/11/10 01:09:17;;;;;;;0.20;0.20;;;;;;;3.73;100.00;101924.75;5107069;28;20117;-79
2021/11/10 01:11:48;;;;;;;0.20;0.20;;;;;;;3.69;100.00;101923.50;5107529;28;20483;-78
2021/11/10 01:14:22;;;;;;;0.30;0.30;;;;;;;3.73;100.00;101926.63;5107594;28;20063;-78
2021/11/10 01:16:55;;;;;;;0.25;0.25;;;;;;;3.67;100.00;101922.03;5108219;28;20044;-80
2021/11/10 01:19:28;;;;;;;0.20;0.20;;;;;;;3.78;100.00;101926.00;5107456;28;20059;-79
2021/11/10 01:22:02;;;;;;;0.20;0.20;;;;;;;3.63;100.00;101904.63;5106364;28;21202;-79
2021/11/10 01:24:36;;;;;;;0.20;0.20;;;;;;;3.62;100.00;101919.13;5108360;28;20035;-78
2021/11/10 01:27:06;;;;;;;0.20;0.20;;;;;;;3.63;100.00;101912.72;5108377;28;20585;-79
2021/11/10 01:29:42;;;;;;;0.20;0.20;;;;;;;3.59;100.00;101915.00;5107856;28;20052;-78
2021/11/10 01:32:11;;;;;;;0.20;0.20;;;;;;;3.57;100.00;101911.66;5108825;28;20056;-80
2021/11/10 01:34:45;;;;;;;0.20;0.20;;;;;;;3.60;100.00;101913.13;5105660;28;20047;-79
2021/11/10 01:37:20;;;;;;;0.20;0.20;;;;;;;3.50;100.00;101903.56;5108632;27;20502;-79
2021/11/10 01:39:53;;;;;;;0.20;0.20;;;;;;;3.54;100.00;101912.06;5105707;28;20071;-78
2021/11/10 01:42:30;;;;;;;0.20;0.20;;;;;;;3.54;100.00;101909.38;5116433;27;20055;-79
2021/11/10 01:45:04;;;;;;;0.20;0.20;;;;;;;3.53;100.00;101913.09;5105441;28;20328;-79
2021/11/10 01:47:33;;;;;;;0.20;0.20;;;;;;;3.52;100.00;101901.50;5109219;28;20056;-79
2021/11/10 01:50:07;;;;;;;0.30;0.30;;;;;;;3.45;100.00;101889.06;5105934;28;20110;-78
2021/11/10 01:52:42;;;;;;;;;;;;;;;3.56;100.00;101901.91;5123652;27;20052;-78
2021/11/10 01:55:13;;;;;;;0.20;0.20;;;;;;;3.45;100.00;101889.88;5105365;28;19927;-79
2021/11/10 01:57:47;;;;;;;0.20;0.20;;;;;;;3.46;100.00;101893.41;5109191;28;20059;-79
2021/11/10 02:00:25;;;;;;;0.20;0.20;;;;;;;3.40;100.00;101886.97;5103533;28;20054;-78
2021/11/10 02:03:02;;;;;;;0.20;0.20;;;;;;;3.38;100.00;101889.03;5107558;28;20047;-80
2021/11/10 02:05:47;;;;;;;0.20;0.20;;;;;;;3.38;100.00;101889.88;5107698;28;20044;-79
2021/11/10 02:08:32;;;;;;;0.20;0.20;;;;;;;3.29;100.00;101887.56;5118220;27;20426;-77
2021/11/10 02:11:14;;;;;;;0.20;0.20;;;;;;;3.25;100.00;101889.00;5103730;28;20048;-79
2021/11/10 02:13:59;;;;;;;0.20;0.20;;;;;;;3.27;100.00;101882.34;5110881;28;20044;-78
2021/11/10 02:16:37;;;;;;;0.20;0.20;;;;;;;3.26;100.00;101888.78;5103387;28;20070;-78
2021/11/10 02:19:19;;;;;;;0.30;0.30;;;;;;;3.22;100.00;101877.59;5105711;28;20048;-77
2021/11/10 02:22:21;;;;;;;0.20;0.20;;;;;;;3.25;100.00;101870.97;5099836;28;20062;-77
2021/11/10 02:24:56;;;;;;;0.20;0.20;;;;;;;3.22;100.00;101877.59;5104226;28;20515;-78
2021/11/10 02:27:27;;;;;;;0.30;0.30;;;;;;;3.26;100.00;101877.19;5106761;28;20049;-79
2021/11/10 02:30:03;;;;;;;0.30;0.30;;;;;;;3.20;100.00;101873.44;5107902;28;20407;-78
2021/11/10 02:32:34;;;;;;;0.30;0.30;;;;;;;3.16;100.00;101882.94;5104301;28;20060;-78
2021/11/10 02:35:08;;;;;;;0.20;0.20;;;;;;;3.07;100.00;101866.16;5115785;27;20051;-78
2021/11/10 02:37:43;;;;;;;0.20;0.20;;;;;;;3.02;100.00;101865.91;5107348;28;20047;-78
2021/11/10 02:40:17;;;;;;;0.20;0.20;;;;;;;3.01;100.00;101875.84;5107626;28;20381;-79
2021/11/10 02:42:51;;;;;;;0.30;0.30;;;;;;;2.99;100.00;101869.84;5106209;27;20052;-77
2021/11/10 02:45:25;;;;;;;0.20;0.20;;;;;;;2.99;100.00;101877.91;5106698;28;20044;-78
2021/11/10 02:47:59;;;;;;;0.30;0.30;;;;;;;2.95;100.00;101868.56;5107739;28;20083;-78
2021/11/10 02:50:33;;;;;;;0.20;0.20;;;;;;;2.94;100.00;101864.25;5115258;27;20087;-78
2021/11/10 02:53:09;;;;;;;0.22;0.22;;;;;;;2.93;100.00;101867.09;5104571;28;20059;-77
2021/11/10 02:55:42;;;;;;;0.30;0.30;;;;;;;2.92;100.00;101852.84;5106945;28;20050;-78
2021/11/10 02:58:15;;;;;;;0.30;0.30;;;;;;;2.84;100.00;101844.94;5108586;28;20395;-78
2021/11/10 03:00:49;;;;;;;0.20;0.20;;;;;;;2.92;100.00;101852.03;5105581;28;20054;-79
2021/11/10 03:03:23;;;;;;;0.20;0.20;;;;;;;2.80;100.00;101847.19;5100849;28;20062;-77
2021/11/10 03:05:56;;;;;;;0.20;0.20;;;;;;;2.80;100.00;101844.50;5107632;28;20039;-77
2021/11/10 03:08:33;;;;;;;0.20;0.20;;;;;;;2.84;100.00;101845.75;5104703;28;20400;-78
2021/11/10 03:11:09;;;;;;;0.20;0.20;;;;;;;2.77;100.00;101836.84;5104686;28;20121;-79
2021/11/10 03:13:45;;;;;;;0.25;0.25;;;;;;;2.79;100.00;101834.81;5103532;28;20047;-78
2021/11/10 03:16:14;;;;;;;0.30;0.30;;;;;;;2.69;100.00;101827.09;5106360;28;20426;-79
2021/11/10 03:18:47;;;;;;;0.45;0.30;;;;;;;2.67;100.00;101821.09;5121498;27;20044;-77
2021/11/10 03:21:15;;;;;;;0.20;0.20;;;;;;;2.61;100.00;101823.72;5105483;28;20052;-78
2021/11/10 03:23:50;;;;;;;0.20;0.20;;;;;;;2.60;100.00;101830.16;5102835;28;20043;-78
2021/11/10 03:26:23;;;;;;;0.25;0.25;;;;;;;2.53;100.00;101827.44;5114898;27;20783;-78
2021/11/10 03:28:58;;;;;;;0.20;0.20;;;;;;;2.54;100.00;101834.44;5104334;28;20098;-77
2021/11/10 03:31:37;;;;;;;0.20;0.20;;;;;;;2.53;100.00;101833.63;5113981;27;20526;-79
2021/11/10 03:34:13;;;;;;;0.20;0.20;;;;;;;2.49;100.00;101839.59;5105635;28;20058;-78
2021/11/10 03:36:42;;;;;;;0.20;0.20;;;;;;;2.38;100.00;101835.59;5105444;28;20047;-77
2021/11/10 03:39:18;;;;;;;0.20;0.20;;;;;;;2.29;100.00;101839.44;5105352;28;20040;-78
2021/11/10 03:41:52;;;;;;;0.30;0.30;;;;;;;2.25;100.00;101847.09;5105286;28;20048;-77
2021/11/10 03:44:21;;;;;;;0.20;0.20;;;;;;;2.17;100.00;101831.94;5103534;28;20050;-78
2021/11/10 03:46:56;;;;;;;0.20;0.20;;;;;;;2.16;100.00;101834.81;5106009;28;20056;-77
2021/11/10 03:49:30;;;;;;;0.20;0.20;;;;;;;2.15;100.00;101839.34;5106039;28;20411;-77
2021/11/10 03:52:06;;;;;;;0.20;0.20;;;;;;;2.10;100.00;101819.47;5105292;28;20048;-79
2021/11/10 03:54:40;;;;;;;0.30;0.30;;;;;;;2.18;100.00;101824.69;5104080;28;20040;-78
2021/11/10 03:57:14;;;;;;;0.20;0.20;;;;;;;2.18;100.00;101825.56;5103454;28;20044;-77
2021/11/10 03:59:47;;;;;;;0.20;0.20;;;;;;;2.10;100.00;101825.69;5111034;27;20046;-79
2021/11/10 04:02:17;;;;;;;0.20;0.20;;;;;;;2.14;100.00;101820.75;5104921;28;20052;-78
2021/11/10 04:04:50;;;;;;;0.20;0.20;;;;;;;2.16;100.00;101827.59;5102732;28;20496;-78
2021/11/10 04:07:23;;;;;;;0.20;0.20;;;;;;;2.16;100.00;101821.41;5104964;28;20044;-78
2021/11/10 04:09:58;;;;;;;0.20;0.20;;;;;;;2.28;100.00;101835.09;5103990;28;20345;-79
2021/11/10 04:12:32;;;;;;;0.20;0.20;;;;;;;2.38;100.00;101828.34;5122227;27;20764;-78
2021/11/10 04:15:07;;;;;;;0.20;0.20;;;;;;;2.42;100.00;101822.56;5105642;28;20048;-78
2021/11/10 04:17:40;;;;;;;0.20;0.20;;;;;;;2.43;100.00;101832.31;5107864;28;20043;-78
2021/11/10 04:20:14;;;;;;;0.20;0.20;;;;;;;2.51;100.00;101830.31;5105221;28;20415;-77
2021/11/10 04:22:48;;;;;;;0.20;0.20;;;;;;;2.49;100.00;101835.03;5105008;28;20051;-77
2021/11/10 04:25:23;;;;;;;0.20;0.20;;;;;;;2.51;100.00;101843.75;5104881;28;20056;-78
2021/11/10 04:27:56;;;;;;;0.20;0.20;;;;;;;2.60;100.00;101841.72;5102601;28;20066;-77
2021/11/10 04:30:34;;;;;;;0.20;0.20;;;;;;;2.58;100.00;101841.06;5105733;28;20051;-79
2021/11/10 04:33:02;;;;;;;0.30;0.30;;;;;;;2.53;100.00;101836.31;5103928;28;20035;-77
2021/11/10 04:35:38;;;;;;;0.20;0.20;;;;;;;2.66;100.00;101843.59;5106109;28;20044;-77
2021/11/10 04:38:13;;;;;;;;;;;;;;;2.58;100.00;101843.75;5102953;28;20081;-78
2021/11/10 04:40:48;;;;;;;0.20;0.20;;;;;;;2.57;100.00;101849.34;5105779;28;19927;-77
2021/11/10 04:43:21;;;;;;;0.20;0.20;;;;;;;2.54;100.00;101851.41;5112458;28;20047;-77
2021/11/10 04:46:04;;;;;;;0.20;0.20;;;;;;;2.58;100.00;101845.63;5104623;28;20415;-78
2021/11/10 04:48:39;;;;;;;0.20;0.20;;;;;;;2.45;100.00;101836.47;5114487;28;20043;-77
2021/11/10 04:51:08;;;;;;;0.20;0.20;;;;;;;2.53;100.00;101846.22;5107221;28;20040;-78
2021/11/10 04:53:45;;;;;;;0.20;0.20;;;;;;;2.39;100.00;101826.53;5103252;28;20047;-79
2021/11/10 04:56:15;;;;;;;0.20;0.20;;;;;;;2.44;100.00;101825.91;5105322;28;20515;-78
2021/11/10 04:58:44;;;;;;;0.20;0.20;;;;;;;2.47;100.00;101826.34;5119274;28;20054;-78
2021/11/10 05:01:25;;;;;;;0.20;0.20;;;;;;;2.46;100.00;101823.84;5103719;28;20032;-79
2021/11/10 05:04:05;;;;;;;0.10;0.10;;;;;;;2.47;100.00;101828.19;5103228;28;20051;-78
2021/11/10 05:06:34;;;;;;;0.10;0.10;;;;;;;2.42;100.00;101831.50;5104928;28;20055;-78
2021/11/10 05:09:09;;;;;;;0.20;0.20;;;;;;;2.43;100.00;101827.78;5105131;28;20040;-77
2021/11/10 05:11:40;;;;;;;0.30;0.30;;;;;;;2.41;100.00;101820.94;5104383;28;20125;-78
2021/11/10 05:14:13;;;;;;;0.20;0.20;;;;;;;2.34;100.00;101808.28;5102839;28;20066;-77
2021/11/10 05:16:47;;;;;;;0.30;0.30;;;;;;;2.31;100.00;101816.75;5103137;28;20039;-77
2021/11/10 05:19:15;;;;;;;0.20;0.20;;;;;;;2.35;100.00;101814.50;5102928;28;20055;-78
2021/11/10 05:21:44;;;;;;;0.20;0.20;;;;;;;2.37;100.00;101807.06;5102972;28;20047;-76
2021/11/10 05:24:12;;;;;;;0.20;0.20;;;;;;;2.37;100.00;101818.63;5100138;28;20047;-79
2021/11/10 05:26:47;;;;;;;0.25;0.25;;;;;;;2.33;100.00;101820.03;5105119;28;20052;-79
2021/11/10 05:29:20;;;;;;;0.20;0.20;;;;;;;2.32;100.00;101821.09;5102694;28;20040;-79
2021/11/10 05:31:53;;;;;;;0.30;0.30;;;;;;;2.33;100.00;101819.22;5110854;27;20044;-79
2021/11/10 05:34:21;;;;;;;0.30;0.30;;;;;;;2.30;100.00;101812.38;5104492;28;20641;-78
2021/11/10 05:36:55;;;;;;;0.20;0.20;;;;;;;2.28;100.00;101806.41;5105420;28;20060;-79
2021/11/10 05:39:28;;;;;;;0.30;0.30;;;;;;;2.23;100.00;101802.66;5105322;28;20039;-78
2021/11/10 05:42:02;;;;;;;0.10;0.10;;;;;;;2.26;100.00;101794.19;5106247;28;20418;-78
2021/11/10 05:44:36;;;;;;;0.20;0.20;;;;;;;2.20;100.00;101806.56;5105801;28;20039;-77
2021/11/10 05:47:09;;;;;;;0.20;0.20;;;;;;;2.21;100.00;101806.34;5106955;27;20422;-77
2021/11/10 05:49:43;;;;;;;0.20;0.20;;;;;;;2.23;100.00;101808.00;5107684;28;20046;-77
2021/11/10 05:52:16;;;;;;;0.20;0.20;;;;;;;2.20;100.00;101798.50;5107966;28;20052;-78
2021/11/10 05:54:50;;;;;;;0.20;0.20;;;;;;;2.21;100.00;101802.84;5105004;28;20499;-77
2021/11/10 05:57:24;;;;;;;0.20;0.20;;;;;;;2.23;100.00;101805.34;5116453;27;20044;-78
2021/11/10 05:59:58;;;;;;;0.20;0.20;;;;;;;2.24;100.00;101799.75;5108362;28;20047;-77
2021/11/10 06:02:41;;;;;;;0.20;0.20;;;;;;;2.15;100.00;101793.69;5106943;28;20052;-77
2021/11/10 06:05:16;;;;;;;0.20;0.20;;;;;;;2.17;100.00;101802.41;5106396;28;20059;-77
2021/11/10 06:07:46;;;;;;;0.20;0.20;;;;;;;2.08;100.00;101802.75;5113253;27;20058;-79
2021/11/10 06:10:21;;;;;;;0.20;0.20;;;;;;;2.14;100.00;101815.38;5106578;28;20051;-78
2021/11/10 06:12:51;;;;;;;0.20;0.20;;;;;;;2.12;100.00;101812.06;5106110;28;20043;-78
2021/11/10 06:15:24;;;;;;;0.28;0.28;;;;;;;2.07;100.00;101806.44;5104334;28;20047;-77
2021/11/10 06:17:57;;;;;;;0.20;0.20;;;;;;;2.01;100.00;101797.31;5108674;28;20043;-77
2021/11/10 06:20:30;;;;;;;0.20;0.20;;;;;;;2.01;100.00;101790.09;5107404;28;20047;-77
2021/11/10 06:23:04;;;;;;;0.20;0.20;;;;;;;1.96;100.00;101789.84;5107008;28;20451;-78
2021/11/10 06:25:37;;;;;;;0.20;0.20;;;;;;;2.00;100.00;101798.34;5106236;28;20043;-78
2021/11/10 06:28:12;;;;;;;0.20;0.20;;;;;;;1.99;100.00;101802.03;5105617;28;20527;-78
2021/11/10 06:30:46;;;;;;;0.25;0.25;;;;;;;1.92;100.00;101791.28;5106331;28;20043;-77
2021/11/10 06:33:19;;;;;;;0.20;0.20;;;;;;;2.01;100.00;101803.50;5105037;28;20047;-78
2021/11/10 06:35:53;;;;;;;0.20;0.20;;;;;;;1.97;100.00;101796.03;5108596;28;20044;-77
2021/11/10 06:38:26;;;;;;;0.20;0.20;;;;;;;1.96;100.00;101805.97;5105155;28;20044;-78
2021/11/10 06:40:55;;;;;;;0.20;0.20;;;;;;;1.95;100.00;101803.47;5105869;28;20043;-77
2021/11/10 06:43:30;;;;;;;0.20;0.20;;;;;;;1.95;100.00;101798.13;5105323;28;20050;-78
2021/11/10 06:46:03;;;;;;;0.15;0.15;;;;;;;1.97;100.00;101794.19;5109425;28;20040;-77
2021/11/10 06:48:37;;;;;;;0.30;0.30;;;;;;;1.96;100.00;101795.22;5114598;27;20047;-78
2021/11/10 06:51:14;;;;;;;0.20;0.20;;;;;;;2.02;100.00;101796.31;5107780;28;20126;-78
2021/11/10 06:53:47;;;;;;;0.30;0.30;;;;;;;1.97;100.00;101806.78;5121348;27;20048;-77
2021/11/10 06:56:20;;;;;;;0.20;0.20;;;;;;;1.98;100.00;101811.13;5108669;27;20050;-78
2021/11/10 06:58:50;;;;;;;0.15;0.15;;;;;;;1.95;100.00;101808.84;5106035;28;20039;-78
2021/11/10 07:01:24;;;;;;;0.20;0.20;;;;;;;1.89;100.00;101802.38;5105622;28;20047;-77
2021/11/10 07:03:57;;;;;;;0.20;0.20;;;;;;;1.99;100.00;101808.25;5106759;27;20047;-78
2021/11/10 07:06:31;;;;;;;0.30;0.30;;;;;;;2.02;100.00;101807.84;5105434;28;20051;-78
2021/11/10 07:08:59;;;;;;;0.30;0.30;;;;;;;2.06;100.00;101799.41;5104554;28;20052;-77
2021/11/10 07:11:34;;;;;;;0.20;0.20;;;;;;;2.10;100.00;101793.47;5107114;28;20047;-77
2021/11/10 07:14:09;;;;;;;0.20;0.20;;;;;;;2.14;100.00;101804.63;5106519;28;20467;-78
2021/11/10 07:16:42;;;;;;;0.20;0.20;;;;;;;2.20;100.00;101807.38;5103246;28;20051;-79
2021/11/10 07:19:16;;;;;;;0.20;0.20;;;;;;;2.25;100.00;101806.81;5105412;28;20399;-80
2021/11/10 07:21:49;;;;;;;0.20;0.20;;;;;;;2.25;100.00;101805.94;5104402;28;20040;-79
2021/11/10 07:24:24;;;;;;;0.20;0.20;;;;;;;2.24;100.00;101799.75;5106684;28;20589;-78
2021/11/10 07:26:58;;;;;;;0.20;0.20;;;;;;;2.35;100.00;101803.75;5106380;28;20078;-78
2021/11/10 07:29:28;;;;;;;0.17;0.17;;;;;;;2.38;100.00;101800.66;5106727;28;20430;-77
2021/11/10 07:32:02;;;;;;;0.20;0.20;;;;;;;2.43;100.00;101798.22;5105777;28;20043;-78
2021/11/10 07:34:35;;;;;;;0.20;0.20;;;;;;;2.46;100.00;101803.19;5106765;28;20047;-77
2021/11/10 07:37:04;;;;;;;0.20;0.20;;;;;;;2.46;100.00;101781.69;5100851;28;20525;-78
2021/11/10 07:39:38;;;;;;;0.20;0.20;;;;;;;2.60;100.00;101796.03;5107807;28;20055;-79
2021/11/10 07:42:12;;;;;;;0.20;0.20;;;;;;;2.79;100.00;101809.75;5102034;28;20043;-83
2021/11/10 07:44:46;;;;;;;0.20;0.20;;;;;;;2.79;100.00;101804.38;5116893;27;20055;-80
2021/11/10 07:47:22;;;;;;;0.20;0.20;;;;;;;2.75;100.00;101798.59;5103524;28;20043;-79
2021/11/10 07:49:55;;;;;;;0.20;0.20;;;;;;;2.77;100.00;101790.31;5098949;28;20063;-79
2021/11/10 07:52:28;;;;;;;0.30;0.30;;;;;;;2.78;100.00;101773.16;5100083;28;20040;-77
2021/11/10 07:54:57;;;;;;;0.25;0.25;;;;;;;2.82;100.00;101774.44;5105707;28;20051;-80
2021/11/10 07:57:30;;;;;;;0.20;0.20;;;;;;;2.81;100.00;101765.50;5111901;27;20059;-80
2021/11/10 07:59:59;;;;;;;0.30;0.30;;;;;;;2.85;100.00;101771.34;5096465;28;20047;-79
2021/11/10 08:02:40;;;;;;;0.20;0.20;;;;;;;2.91;100.00;101780.44;5112338;28;20368;-79
2021/11/10 08:05:11;;;;;;;0.20;0.20;;;;;;;2.96;100.00;101781.50;5111717;27;20051;-79
2021/11/10 08:07:40;;;;;;;0.20;0.20;;;;;;;3.08;100.00;101776.38;5104937;27;20044;-78
2021/11/10 08:10:15;;;;;;;0.20;0.20;;;;;;;3.10;100.00;101777.00;5100612;27;20075;-79
2021/11/10 08:12:48;;;;;;;0.20;0.20;;;;;;;3.17;100.00;101768.94;5106030;28;20043;-78
2021/11/10 08:15:24;;;;;;;0.20;0.20;;;;;;;3.20;100.00;101765.84;5103607;28;20062;-79
2021/11/10 08:17:57;;;;;;;0.20;0.20;;;;;;;3.20;100.00;101766.69;5101787;28;20060;-81
2021/11/10 08:20:31;;;;;;;0.30;0.30;;;;;;;3.15;100.00;101750.31;5114439;27;20048;-80
2021/11/10 08:23:04;;;;;;;0.20;0.20;;;;;;;3.34;100.00;101755.94;5097354;28;20047;-78
2021/11/10 08:25:38;;;;;;;0.20;0.20;;;;;;;3.40;100.00;101766.69;5101027;28;20051;-79
2021/11/10 08:28:11;;;;;;;0.20;0.20;;;;;;;3.39;100.00;101767.72;5099364;28;20066;-80
2021/11/10 08:30:46;;;;;;;0.20;0.20;;;;;;;3.50;100.00;101774.38;5098478;28;20113;-79
2021/11/10 08:33:15;;;;;;;0.20;0.20;;;;;;;3.69;100.00;101786.19;5101514;28;20044;-79
2021/11/10 08:35:49;;;;;;;0.20;0.20;;;;;;;3.69;100.00;101782.69;5101200;28;20054;-80
2021/11/10 08:38:23;;;;;;;0.25;0.25;;;;;;;3.73;100.00;101773.16;5097274;28;20125;-79
2021/11/10 08:40:57;;;;;;;0.20;0.20;;;;;;;3.90;100.00;101789.72;5101397;28;20047;-80
2021/11/10 08:43:26;;;;;;;0.20;0.20;;;;;;;3.97;100.00;101797.78;5097652;28;20048;-80
2021/11/10 08:46:01;;;;;;;0.20;0.20;;;;;;;4.00;100.00;101792.81;5101974;28;20610;-80
2021/11/10 08:48:37;;;;;;;0.30;0.30;;;;;;;4.00;100.00;101800.88;5022840;28;20056;-81
2021/11/10 08:51:06;;;;;;;0.20;0.20;;;;;;;3.95;100.00;101794.47;5049588;28;20049;-79
2021/11/10 08:53:40;;;;;;;0.20;0.20;;;;;;;3.98;100.00;101799.44;5048496;28;20044;-80
2021/11/10 08:56:09;;;;;;;0.20;0.20;;;;;;;4.02;100.00;101806.06;5050526;28;20516;-80
2021/11/10 08:58:42;;;;;;;0.30;0.30;;;;;;;4.05;100.00;101806.47;5049000;28;20060;-80
2021/11/10 09:01:18;;;;;;;0.20;0.20;;;;;;;4.07;100.00;101804.44;5044972;28;20060;-81
2021/11/10 09:03:51;;;;;;;0.20;0.20;;;;;;;4.14;100.00;101801.69;5050988;28;20055;-81
2021/11/10 09:06:25;;;;;;;0.20;0.20;;;;;;;4.17;100.00;101805.84;5044215;28;20049;-81
2021/11/10 09:08:58;;;;;;;0.20;0.20;;;;;;;4.20;100.00;101805.44;5058105;28;20345;-81
2021/11/10 09:11:27;;;;;;;0.20;0.20;;;;;;;4.20;100.00;101803.56;5047220;28;20044;-80
2021/11/10 09:13:56;;;;;;;0.20;0.20;;;;;;;4.19;100.00;101806.47;5044777;28;20051;-80
2021/11/10 09:16:31;;;;;;;0.20;0.20;;;;;;;4.19;100.00;101799.22;5044651;28;20052;-79
2021/11/10 09:19:05;;;;;;;0.30;0.30;;;;;;;4.21;100.00;101799.00;5044681;28;20842;-81
2021/11/10 09:21:38;;;;;;;0.20;0.20;;;;;;;4.22;100.00;101795.28;5046761;28;20052;-79
2021/11/10 09:24:12;;;;;;;0.20;0.20;;;;;;;4.27;100.00;101803.56;5045975;28;20397;-81
2021/11/10 09:26:47;;;;;;;0.20;0.20;;;;;;;4.34;100.00;101801.69;5044509;28;20063;-81
2021/11/10 09:29:21;;;;;;;0.20;0.20;;;;;;;4.32;100.00;101801.03;5048637;28;20130;-80
2021/11/10 09:31:55;;;;;;;0.20;0.20;;;;;;;4.46;100.00;101796.47;5049117;28;20052;-80
2021/11/10 09:34:28;;;;;;;0.20;0.20;;;;;;;4.48;100.00;101786.31;5050309;28;20052;-80
2021/11/10 09:37:02;;;;;;;0.20;0.20;;;;;;;4.46;100.00;101776.75;5048570;28;20052;-80
2021/11/10 09:39:30;;;;;;;0.20;0.20;;;;;;;4.56;100.00;101799.56;5049031;28;20048;-81
2021/11/10 09:41:58;;;;;;;0.20;0.20;;;;;;;4.58;100.00;101800.19;5050841;28;20053;-81
2021/11/10 09:44:33;;;;;;;0.20;0.20;;;;;;;4.64;100.00;101803.91;5063952;28;20052;-81
2021/11/10 09:47:08;;;;;;;0.20;0.20;;;;;;;4.71;100.00;101801.16;5062563;28;20080;-80
2021/11/10 09:49:36;;;;;;;0.25;0.25;;;;;;;4.75;100.00;101802.38;5040868;27;20044;-80
2021/11/10 09:52:05;;;;;;;0.20;0.20;;;;;;;4.83;100.00;101799.44;5048542;28;20484;-80
2021/11/10 09:54:35;;;;;;;0.30;0.30;;;;;;;4.90;100.00;101808.38;5052978;28;20412;-80
2021/11/10 09:57:09;;;;;;;0.30;0.30;;;;;;;5.02;100.00;101807.69;5045239;28;20056;-81
2021/11/10 09:59:42;;;;;;;0.20;0.20;;;;;;;5.18;100.00;101807.19;5049332;28;20052;-81
2021/11/10 10:02:14;;;;;;;0.20;0.20;;;;;;;5.21;100.00;101798.66;5050320;28;20064;-80
2021/11/10 10:04:44;;;;;;;0.20;0.20;;;;;;;5.28;100.00;101798.63;5052288;28;20060;-82
2021/11/10 10:07:43;;;;;;;0.30;0.30;;;;;;;5.34;100.00;101805.03;5060151;28;20056;-81
2021/11/10 10:10:17;;;;;;;0.20;0.20;;;;;;;5.40;100.00;101798.75;5058394;28;20060;-79
2021/11/10 10:12:52;;;;;;;0.20;0.20;;;;;;;5.41;100.00;101793.16;5072452;28;20059;-80
2021/11/10 10:15:28;;;;;;;0.20;0.20;;;;;;;5.44;100.00;101798.09;5058886;28;20052;-79
2021/11/10 10:18:01;;;;;;;0.20;0.20;;;;;;;5.61;100.00;101805.69;5059493;28;20075;-80
2021/11/10 10:20:38;;;;;;;0.20;0.20;;;;;;;5.91;100.00;101805.84;5056929;28;20404;-80
2021/11/10 10:23:13;;;;;;;0.30;0.30;;;;;;;5.93;100.00;101805.63;5063245;28;20057;-81
2021/11/10 10:25:49;;;;;;;0.30;0.30;;;;;;;6.14;100.00;101804.44;5053105;28;20051;-79
2021/11/10 10:28:27;;;;;;;0.20;0.20;;;;;;;6.22;100.00;101798.75;5055046;28;20428;-80
2021/11/10 10:31:03;;;;;;;0.20;0.20;;;;;;;6.33;100.00;101797.19;5053990;28;20492;-81
2021/11/10 10:33:36;;;;;;;0.20;0.20;;;;;;;6.65;100.00;101797.03;5052475;28;20056;-80
2021/11/10 10:36:09;;;;;;;0.25;0.25;;;;;;;6.64;100.00;101800.78;5049784;28;20462;-80
2021/11/10 10:38:46;;;;;;;0.20;0.20;;;;;;;6.77;100.00;101803.34;5052762;28;20056;-79
2021/11/10 10:41:24;;;;;;;0.30;0.30;;;;;;;6.91;100.00;101801.31;5050246;28;20056;-81
2021/11/10 10:44:04;;;;;;;0.30;0.30;;;;;;;7.21;100.00;101800.50;5050780;28;20044;-80
2021/11/10 10:46:41;;;;;;;0.30;0.30;;;;;;;7.41;100.00;101804.81;5045051;28;20067;-80
2021/11/10 10:49:16;;;;;;;0.20;0.20;;;;;;;7.45;100.00;101806.00;5037056;28;20048;-79
2021/11/10 10:51:52;;;;;;;0.17;0.17;;;;;;;7.41;100.00;101791.25;5036332;28;20139;-80
2021/11/10 10:54:29;;;;;;;0.30;0.30;;;;;;;7.44;100.00;101788.09;5044336;28;20055;-81
2021/11/10 10:57:02;;;;;;;;;;;;;;;7.43;100.00;101794.53;5029319;28;20048;-81
2021/11/10 10:59:36;;;;;;;0.20;0.20;;;;;;;7.37;100.00;101795.50;5038226;28;19939;-82
2021/11/10 11:02:09;;;;;;;0.20;0.20;;;;;;;7.41;100.00;101802.91;5038717;28;20365;-80
2021/11/10 11:04:45;;;;;;;0.20;0.20;;;;;;;7.38;100.00;101786.31;5033769;28;20491;-80
2021/11/10 11:07:14;;;;;;;0.20;0.20;;;;;;;7.35;100.00;101795.72;5041351;28;20598;-80
2021/11/10 11:09:49;;;;;;;0.20;0.20;;;;;;;7.25;100.00;101798.16;5041176;28;20060;-81
2021/11/10 11:12:27;;;;;;;0.20;0.20;;;;;;;7.42;100.00;101788.31;5040107;28;20552;-83
2021/11/10 11:15:10;;;;;;;0.30;0.30;;;;;;;7.51;100.00;101788.00;5040703;28;20055;-81
2021/11/10 11:17:47;;;;;;;0.30;0.30;;;;;;;7.54;100.00;101784.81;5041623;28;20056;-80
2021/11/10 11:20:19;;;;;;;0.20;0.20;;;;;;;7.45;100.00;101771.59;5043432;28;20060;-81
2021/11/10 11:22:54;;;;;;;0.25;0.25;;;;;;;7.46;100.00;101765.13;5044707;28;20052;-80
2021/11/10 11:25:25;;;;;;;0.30;0.30;;;;;;;7.41;100.00;101765.00;5048227;28;20048;-80
2021/11/10 11:28:00;;;;;;;0.20;0.20;;;;;;;7.45;100.00;101757.25;5041864;28;20048;-80
2021/11/10 11:30:31;;;;;;;0.20;0.20;;;;;;;7.44;100.00;101761.84;5034214;28;20048;-80
2021/11/10 11:33:08;;;;;;;0.30;0.30;;;;;;;7.49;100.00;101769.25;5035822;28;20056;-81
2021/11/10 11:35:44;;;;;;;0.30;0.30;;;;;;;7.57;100.00;101781.66;5042402;28;20400;-80
2021/11/10 11:38:19;;;;;;;0.20;0.20;;;;;;;7.69;100.00;101774.34;5035037;28;20064;-77
2021/11/10 11:40:55;;;;;;;0.20;0.20;;;;;;;7.78;100.00;101780.28;5034324;28;20048;-81
2021/11/10 11:43:30;;;;;;;0.30;0.30;;;;;;;7.83;100.00;101772.28;5042459;28;21486;-81
2021/11/10 11:46:04;;;;;;;0.20;0.20;;;;;;;7.73;100.00;101770.13;5041781;28;20057;-80
2021/11/10 11:48:37;;;;;;;0.22;0.22;;;;;;;7.78;100.00;101772.13;5035670;28;20636;-81
2021/11/10 11:51:12;;;;;;;0.30;0.30;;;;;;;7.81;100.00;101777.91;5042240;28;21164;-81
2021/11/10 11:53:45;;;;;;;0.20;0.20;;;;;;;7.89;100.00;101770.50;5039604;28;20625;-81
2021/11/10 11:56:19;;;;;;;0.20;0.20;;;;;;;7.98;100.00;101769.91;5043665;28;20063;-80